createdAt,value
2023-03-19T00:04:17.456Z,11.18
2023-03-19T00:09:16.301Z,11.10
2023-03-19T00:14:15.552Z,11.06
2023-03-19T00:19:14.310Z,11.05
2023-03-19T00:24:14.809Z,11.00
2023-03-19T00:29:14.719Z,10.96
2023-03-19T00:34:13.871Z,10.91
2023-03-19T00:39:13.377Z,10.97
2023-03-19T00:44:13.878Z,11.02
2023-03-19T00:49:13.515Z,11.06
2023-03-19T00:54:13.651Z,10.98
2023-03-19T00:59:13.906Z,10.94
2023-03-19T01:04:13.124Z,10.73
2023-03-19T01:09:12.164Z,10.67
2023-03-19T01:14:10.950Z,10.61
2023-03-19T01:19:12.463Z,10.64
2023-03-19T01:24:11.942Z,10.54
2023-03-19T01:29:11.473Z,10.36
2023-03-19T01:34:11.992Z,10.28
2023-03-19T01:39:19.271Z,10.37
2023-03-19T01:44:27.287Z,10.27
2023-03-19T01:49:51.963Z,10.18
2023-03-19T01:54:53.961Z,10.04
2023-03-19T02:00:25.300Z,10.08
2023-03-19T02:05:28.621Z,10.26
2023-03-19T02:10:33.421Z,10.32
2023-03-19T02:15:32.402Z,9.97
2023-03-19T02:20:36.545Z,10.00
2023-03-19T02:25:42.628Z,10.08
2023-03-19T02:30:45.303Z,10.13
2023-03-19T02:35:46.801Z,10.02
2023-03-19T02:40:52.444Z,9.79
2023-03-19T02:45:53.089Z,9.47
2023-03-19T02:50:52.322Z,9.46
2023-03-19T02:55:51.316Z,9.19
2023-03-19T03:00:52.120Z,9.26
2023-03-19T03:05:52.466Z,9.44
2023-03-19T03:10:51.374Z,9.42
2023-03-19T03:15:50.110Z,9.42
2023-03-19T03:20:49.181Z,9.47
2023-03-19T03:25:52.316Z,9.54
2023-03-19T03:30:51.131Z,9.55
2023-03-19T03:35:49.870Z,9.56
2023-03-19T03:40:53.821Z,9.56
2023-03-19T03:45:56.581Z,9.54
2023-03-19T03:50:55.569Z,9.51
2023-03-19T03:55:59.761Z,9.44
2023-03-19T04:01:00.515Z,9.31
2023-03-19T04:05:59.703Z,9.30
2023-03-19T04:11:00.306Z,9.31
2023-03-19T04:15:59.174Z,9.25
2023-03-19T04:20:58.683Z,9.19
2023-03-19T04:26:13.250Z,9.12
2023-03-19T04:31:12.704Z,9.09
2023-03-19T04:36:15.557Z,9.06
2023-03-19T04:41:16.337Z,9.07
2023-03-19T04:46:28.061Z,9.10
2023-03-19T04:51:27.006Z,9.14
2023-03-19T04:56:27.874Z,9.21
2023-03-19T05:01:29.213Z,9.34
2023-03-19T05:06:36.434Z,9.24
2023-03-19T05:11:37.091Z,9.31
2023-03-19T05:16:45.848Z,9.41
2023-03-19T05:21:44.870Z,9.50
2023-03-19T05:26:46.936Z,9.63
2023-03-19T05:32:17.903Z,9.64
2023-03-19T05:37:17.681Z,9.69
2023-03-19T05:42:23.297Z,9.73
2023-03-19T05:47:22.618Z,9.78
2023-03-19T05:52:25.485Z,10.05
2023-03-19T05:57:29.328Z,10.28
2023-03-19T06:02:34.375Z,10.32
2023-03-19T06:08:01.940Z,10.30
2023-03-19T06:13:18.719Z,10.22
2023-03-19T06:18:26.444Z,10.37
2023-03-19T06:23:25.437Z,10.51
2023-03-19T06:28:26.313Z,10.57
2023-03-19T06:33:27.802Z,10.66
2023-03-19T06:38:27.042Z,10.62
2023-03-19T06:43:27.152Z,10.73
2023-03-19T06:48:26.044Z,10.65
2023-03-19T06:53:24.840Z,10.72
2023-03-19T06:58:23.571Z,10.79
2023-03-19T07:03:23.758Z,10.82
2023-03-19T07:08:22.492Z,11.05
2023-03-19T07:13:21.423Z,11.10
2023-03-19T07:18:20.249Z,10.98
2023-03-19T07:23:21.985Z,10.94
2023-03-19T07:28:22.099Z,10.81
2023-03-19T07:33:22.700Z,11.15
2023-03-19T07:38:26.316Z,11.19
2023-03-19T07:43:26.486Z,11.42
2023-03-19T07:48:28.299Z,11.61
2023-03-19T07:53:29.076Z,11.95
2023-03-19T07:58:28.183Z,11.82
2023-03-19T08:03:26.963Z,11.95
2023-03-19T08:08:25.869Z,12.04
2023-03-19T08:13:26.042Z,11.69
2023-03-19T08:18:24.841Z,12.04
2023-03-19T08:23:23.577Z,12.35
2023-03-19T08:28:22.498Z,12.30
2023-03-19T08:33:23.070Z,12.27
2023-03-19T08:38:22.008Z,12.39
2023-03-19T08:43:20.708Z,12.72
2023-03-19T08:48:19.561Z,12.40
2023-03-19T08:53:22.131Z,13.13
2023-03-19T08:58:21.426Z,13.50
2023-03-19T09:03:21.715Z,13.71
2023-03-19T09:08:21.895Z,14.34
2023-03-19T09:13:20.774Z,15.41
2023-03-19T09:18:20.589Z,16.07
2023-03-19T09:23:19.518Z,15.89
2023-03-19T09:28:20.840Z,16.95
2023-03-19T09:33:21.651Z,17.41
2023-03-19T09:38:20.723Z,18.01
2023-03-19T09:43:40.945Z,19.23
2023-03-19T09:48:45.413Z,17.51
2023-03-19T09:53:52.956Z,19.13
2023-03-19T09:58:53.831Z,20.53
2023-03-19T10:04:07.992Z,20.79
2023-03-19T10:09:23.232Z,22.02
2023-03-19T10:14:46.971Z,20.42
2023-03-19T10:19:51.698Z,21.17
2023-03-19T10:24:53.597Z,22.37
2023-03-19T10:29:53.961Z,22.94
2023-03-19T10:34:54.030Z,22.89
2023-03-19T10:39:56.681Z,23.22
2023-03-19T10:45:03.428Z,22.85
2023-03-19T10:50:04.856Z,23.53
2023-03-19T10:55:06.765Z,24.78
2023-03-19T11:00:18.862Z,25.34
2023-03-19T11:05:26.105Z,25.77
2023-03-19T11:10:30.175Z,25.56
2023-03-19T11:15:36.487Z,26.06
2023-03-19T11:20:37.227Z,26.53
2023-03-19T11:25:39.095Z,26.56
2023-03-19T11:30:49.997Z,26.86
2023-03-19T11:35:56.920Z,27.11
2023-03-19T11:41:02.264Z,27.32
2023-03-19T11:46:10.456Z,27.97
2023-03-19T11:51:17.833Z,27.33
2023-03-19T11:56:25.545Z,27.01
2023-03-19T12:01:43.637Z,26.80
2023-03-19T12:06:53.236Z,26.99
2023-03-19T12:11:55.580Z,28.18
2023-03-19T12:17:07.865Z,27.89
2023-03-19T12:22:16.136Z,26.67
2023-03-19T12:27:27.537Z,27.39
2023-03-19T12:32:46.918Z,28.67
2023-03-19T12:37:53.448Z,27.45
2023-03-19T12:42:52.762Z,27.64
2023-03-19T12:48:01.035Z,28.69
2023-03-19T12:53:02.841Z,28.37
2023-03-19T12:58:04.949Z,29.67
2023-03-19T13:03:11.576Z,30.34
2023-03-19T13:08:17.078Z,30.39
2023-03-19T13:13:29.795Z,28.65
2023-03-19T13:18:39.102Z,28.03
2023-03-19T13:23:40.827Z,28.83
2023-03-19T13:28:55.961Z,29.13
2023-03-19T13:34:03.253Z,29.39
2023-03-19T13:39:03.370Z,29.44
2023-03-19T13:44:20.296Z,28.33
2023-03-19T13:49:33.762Z,28.46
2023-03-19T13:54:38.494Z,28.21
2023-03-19T13:59:37.956Z,29.16
2023-03-19T14:04:39.442Z,29.09
2023-03-19T14:09:43.632Z,28.40
2023-03-19T14:14:43.869Z,27.18
2023-03-19T14:19:44.366Z,27.50
2023-03-19T14:24:57.139Z,28.84
2023-03-19T14:30:00.795Z,27.80
2023-03-19T14:35:01.838Z,28.06
2023-03-19T14:40:11.132Z,27.39
2023-03-19T14:45:30.609Z,27.85
2023-03-19T14:50:43.479Z,27.73
2023-03-19T14:55:43.252Z,27.31
2023-03-19T15:00:46.295Z,27.58
2023-03-19T15:05:50.246Z,28.32
2023-03-19T15:10:58.391Z,27.77
2023-03-19T15:16:08.284Z,27.36
2023-03-19T15:21:08.732Z,27.26
2023-03-19T15:26:11.750Z,26.99
2023-03-19T15:31:30.297Z,26.41
2023-03-19T15:36:34.245Z,26.44
2023-03-19T15:41:36.828Z,26.42
2023-03-19T15:46:38.173Z,25.93
2023-03-19T15:51:39.015Z,25.41
2023-03-19T15:56:38.149Z,24.97
2023-03-19T16:01:37.286Z,24.70
2023-03-19T16:06:40.479Z,24.15
2023-03-19T16:11:42.467Z,23.77
2023-03-19T16:16:43.121Z,23.42
2023-03-19T16:21:44.688Z,22.83
2023-03-19T16:26:45.672Z,22.30
2023-03-19T16:31:47.095Z,21.99
2023-03-19T16:36:47.906Z,21.72
2023-03-19T16:42:15.471Z,21.43
2023-03-19T16:47:16.701Z,21.04
2023-03-19T16:52:19.941Z,20.70
2023-03-19T16:57:20.014Z,20.38
2023-03-19T17:02:20.194Z,20.06
2023-03-19T17:07:20.726Z,19.75
2023-03-19T17:12:19.464Z,19.59
2023-03-19T17:17:20.825Z,19.44
2023-03-19T17:22:20.964Z,19.22
2023-03-19T17:27:19.904Z,19.02
2023-03-19T17:32:21.165Z,18.80
2023-03-19T17:37:21.409Z,18.60
2023-03-19T17:42:22.190Z,18.40
2023-03-19T17:47:21.378Z,18.15
2023-03-19T17:52:23.558Z,17.99
2023-03-19T17:57:22.368Z,17.84
2023-03-19T18:02:27.315Z,17.66
2023-03-19T18:07:30.525Z,17.49
2023-03-19T18:12:29.248Z,17.31
2023-03-19T18:17:28.227Z,17.15
2023-03-19T18:22:29.238Z,16.91
2023-03-19T18:27:28.158Z,16.76
2023-03-19T18:32:31.005Z,16.65
2023-03-19T18:37:33.303Z,16.50
2023-03-19T18:42:32.117Z,16.35
2023-03-19T18:47:31.461Z,16.28
2023-03-19T18:52:31.610Z,16.18
2023-03-19T18:57:30.405Z,15.96
2023-03-19T19:02:37.041Z,15.90
2023-03-19T19:07:37.273Z,15.85
2023-03-19T19:12:38.711Z,15.79
2023-03-19T19:17:37.632Z,15.75
2023-03-19T19:22:37.757Z,15.66
2023-03-19T19:27:36.711Z,15.61
2023-03-19T19:32:36.584Z,15.56
2023-03-19T19:37:35.479Z,15.47
2023-03-19T19:42:38.149Z,15.41
2023-03-19T19:47:37.413Z,15.30
2023-03-19T19:52:41.751Z,15.19
2023-03-19T19:57:42.068Z,15.08
2023-03-19T20:02:43.111Z,14.98
2023-03-19T20:07:43.457Z,14.81
2023-03-19T20:12:51.353Z,14.50
2023-03-19T20:17:53.661Z,14.17
2023-03-19T20:22:55.418Z,14.11
2023-03-19T20:27:59.653Z,13.95
2023-03-19T20:33:01.468Z,13.88
2023-03-19T20:38:03.080Z,13.87
2023-03-19T20:43:22.168Z,13.83
2023-03-19T20:48:21.827Z,13.75
2023-03-19T20:53:22.680Z,13.74
2023-03-19T20:58:28.026Z,13.70
2023-03-19T21:03:33.649Z,13.64
2023-03-19T21:08:40.432Z,13.58
2023-03-19T21:13:44.038Z,13.54
2023-03-19T21:18:43.372Z,13.49
2023-03-19T21:23:50.559Z,13.39
2023-03-19T21:28:53.336Z,13.35
2023-03-19T21:33:52.796Z,13.30
2023-03-19T21:38:52.613Z,13.27
2023-03-19T21:43:56.327Z,13.23
2023-03-19T21:48:56.012Z,13.19
2023-03-19T21:53:54.833Z,13.13
2023-03-19T21:58:55.909Z,13.05
2023-03-19T22:03:56.497Z,13.01
2023-03-19T22:08:55.341Z,12.82
2023-03-19T22:13:57.288Z,12.42
2023-03-19T22:18:56.378Z,12.38
2023-03-19T22:23:55.166Z,12.37
2023-03-19T22:28:55.526Z,12.35
2023-03-19T22:33:54.276Z,12.33
2023-03-19T22:38:53.046Z,12.30
2023-03-19T22:43:51.957Z,12.26
2023-03-19T22:48:52.352Z,12.22
2023-03-19T22:53:51.649Z,12.20
2023-03-19T22:58:50.835Z,12.15
2023-03-19T23:03:51.763Z,11.88
2023-03-19T23:08:50.992Z,11.74
2023-03-19T23:14:12.558Z,11.69
2023-03-19T23:19:26.031Z,11.61
2023-03-19T23:24:25.446Z,11.59
2023-03-19T23:29:27.962Z,11.55
2023-03-19T23:34:29.594Z,11.39
2023-03-19T23:39:28.501Z,11.36
2023-03-19T23:44:29.164Z,11.34
2023-03-19T23:49:31.026Z,11.32
2023-03-19T23:54:31.769Z,11.30
2023-03-19T23:59:34.328Z,11.25
